createdAt,value
2022-08-26T00:00:15.756Z,67.87
2022-08-26T00:02:43.863Z,68.15
2022-08-26T00:05:13.591Z,68.09
2022-08-26T00:07:42.294Z,67.84
2022-08-26T00:10:13.529Z,68.39
2022-08-26T00:12:42.744Z,68.77
2022-08-26T00:15:14.811Z,69.08
2022-08-26T00:17:43.449Z,69.47
2022-08-26T00:20:15.936Z,69.55
2022-08-26T00:22:44.495Z,70.35
2022-08-26T00:25:13.299Z,70.52
2022-08-26T00:27:43.985Z,70.70
2022-08-26T00:30:16.975Z,71.53
2022-08-26T00:32:51.431Z,71.75
2022-08-26T00:35:21.942Z,72.52
2022-08-26T00:37:51.957Z,73.08
2022-08-26T00:40:24.427Z,73.48
2022-08-26T00:42:52.797Z,73.98
2022-08-26T00:45:21.079Z,74.44
2022-08-26T00:47:53.715Z,74.92
2022-08-26T00:50:27.807Z,75.36
2022-08-26T00:52:59.252Z,75.90
2022-08-26T00:55:38.197Z,76.19
2022-08-26T00:58:08.726Z,76.81
2022-08-26T01:00:37.029Z,76.71
2022-08-26T01:03:05.931Z,77.26
2022-08-26T01:05:42.829Z,77.48
2022-08-26T01:08:11.280Z,77.80
2022-08-26T01:10:40.182Z,78.42
2022-08-26T01:13:11.158Z,78.81
2022-08-26T01:15:44.407Z,78.96
2022-08-26T01:18:14.760Z,79.16
2022-08-26T01:20:57.665Z,79.22
2022-08-26T01:23:29.540Z,79.56
2022-08-26T01:26:05.294Z,79.54
2022-08-26T01:28:37.073Z,79.98
2022-08-26T01:31:10.592Z,80.11
2022-08-26T01:33:51.931Z,80.22
2022-08-26T01:36:20.319Z,80.38
2022-08-26T01:38:50.353Z,80.57
2022-08-26T01:41:19.979Z,80.91
2022-08-26T01:43:58.060Z,81.22
2022-08-26T01:46:29.613Z,81.67
2022-08-26T01:49:01.363Z,81.73
2022-08-26T01:51:30.415Z,82.02
2022-08-26T01:54:00.283Z,82.09
2022-08-26T01:56:33.184Z,82.16
2022-08-26T01:59:09.583Z,82.32
2022-08-26T02:01:39.059Z,82.52
2022-08-26T02:04:24.910Z,82.47
2022-08-26T02:06:54.819Z,82.49
2022-08-26T02:09:25.830Z,82.75
2022-08-26T02:11:55.671Z,82.47
2022-08-26T02:14:29.302Z,82.73
2022-08-26T02:16:57.659Z,82.65
2022-08-26T02:19:32.672Z,82.53
2022-08-26T02:22:05.639Z,82.50
2022-08-26T02:24:49.686Z,82.13
2022-08-26T02:27:20.415Z,82.38
2022-08-26T02:29:54.278Z,82.50
2022-08-26T02:32:22.406Z,82.24
2022-08-26T02:34:51.634Z,82.15
2022-08-26T02:37:20.187Z,82.14
2022-08-26T02:39:52.629Z,82.19
2022-08-26T02:42:20.772Z,82.18
2022-08-26T02:44:49.613Z,82.16
2022-08-26T02:47:18.157Z,82.24
2022-08-26T02:49:49.287Z,82.20
2022-08-26T02:52:17.732Z,82.03
2022-08-26T02:54:46.360Z,82.15
2022-08-26T02:57:20.583Z,82.10
2022-08-26T02:59:50.426Z,82.28
2022-08-26T03:02:18.610Z,82.19
2022-08-26T03:04:57.983Z,82.10
2022-08-26T03:07:33.176Z,82.07
2022-08-26T03:10:08.264Z,82.03
2022-08-26T03:12:38.121Z,81.98
2022-08-26T03:15:17.573Z,82.20
2022-08-26T03:17:48.334Z,82.17
2022-08-26T03:20:17.518Z,81.91
2022-08-26T03:22:46.865Z,81.92
2022-08-26T03:25:17.545Z,82.00
2022-08-26T03:27:47.480Z,82.06
2022-08-26T03:30:34.522Z,82.23
2022-08-26T03:33:03.192Z,82.23
2022-08-26T03:35:33.884Z,82.08
2022-08-26T03:38:04.776Z,82.31
2022-08-26T03:40:33.726Z,82.03
2022-08-26T03:43:04.739Z,82.09
2022-08-26T03:45:33.288Z,82.13
2022-08-26T03:48:01.657Z,82.04
2022-08-26T03:50:31.046Z,81.84
2022-08-26T03:53:03.078Z,82.02
2022-08-26T03:55:33.404Z,82.17
2022-08-26T03:58:03.330Z,81.90
2022-08-26T04:00:31.832Z,81.51
2022-08-26T04:03:02.599Z,81.92
2022-08-26T04:05:31.106Z,81.83
2022-08-26T04:07:59.221Z,82.00
2022-08-26T04:10:29.208Z,81.90
2022-08-26T04:12:58.930Z,81.91
2022-08-26T04:15:29.930Z,81.88
2022-08-26T04:17:58.290Z,81.76
2022-08-26T04:20:26.862Z,81.61
2022-08-26T04:22:55.021Z,81.62
2022-08-26T04:25:24.361Z,81.69
2022-08-26T04:27:52.591Z,81.65
2022-08-26T04:30:21.262Z,81.65
2022-08-26T04:32:51.020Z,81.67
2022-08-26T04:35:22.788Z,81.71
2022-08-26T04:37:55.405Z,81.75
2022-08-26T04:40:23.860Z,81.75
2022-08-26T04:42:52.034Z,81.90
2022-08-26T04:45:22.577Z,81.82
2022-08-26T04:47:56.320Z,82.05
2022-08-26T04:50:25.745Z,81.95
2022-08-26T04:52:55.303Z,81.77
2022-08-26T04:55:37.314Z,81.62
2022-08-26T04:58:10.375Z,81.77
2022-08-26T05:00:39.593Z,81.68
2022-08-26T05:03:10.335Z,81.65
2022-08-26T05:05:41.207Z,81.54
2022-08-26T05:08:11.369Z,81.48
2022-08-26T05:10:44.253Z,81.40
2022-08-26T05:13:15.497Z,81.52
2022-08-26T05:15:45.304Z,81.29
2022-08-26T05:18:16.551Z,81.17
2022-08-26T05:20:48.023Z,81.10
2022-08-26T05:23:17.575Z,81.04
2022-08-26T05:25:49.126Z,80.84
2022-08-26T05:28:19.466Z,80.54
2022-08-26T05:30:47.944Z,80.39
2022-08-26T05:33:20.052Z,80.08
2022-08-26T05:35:49.176Z,79.96
2022-08-26T05:38:20.265Z,79.93
2022-08-26T05:40:52.822Z,79.79
2022-08-26T05:43:22.179Z,79.36
2022-08-26T05:45:51.872Z,79.40
2022-08-26T05:48:24.544Z,79.28
2022-08-26T05:50:54.856Z,79.04
2022-08-26T05:53:26.125Z,79.00
2022-08-26T05:55:56.072Z,79.15
2022-08-26T05:58:24.913Z,78.94
2022-08-26T06:01:01.786Z,78.67
2022-08-26T06:03:34.359Z,78.71
2022-08-26T06:06:06.230Z,78.32
2022-08-26T06:08:36.107Z,78.40
2022-08-26T06:11:08.773Z,78.13
2022-08-26T06:13:47.069Z,78.26
2022-08-26T06:16:19.402Z,78.14
2022-08-26T06:18:50.604Z,78.12
2022-08-26T06:21:21.315Z,77.77
2022-08-26T06:24:10.646Z,77.96
2022-08-26T06:26:39.855Z,77.72
2022-08-26T06:29:11.499Z,77.65
2022-08-26T06:31:53.100Z,77.41
2022-08-26T06:34:23.031Z,77.33
2022-08-26T06:36:54.856Z,76.67
2022-08-26T06:39:23.027Z,76.76
2022-08-26T06:41:51.424Z,76.41
2022-08-26T06:44:20.244Z,76.42
2022-08-26T06:46:50.691Z,76.53
2022-08-26T06:49:27.147Z,76.66
2022-08-26T06:51:59.160Z,76.02
2022-08-26T06:54:28.236Z,76.24
2022-08-26T06:56:57.468Z,76.04
2022-08-26T06:59:26.841Z,75.93
2022-08-26T07:01:57.407Z,75.48
2022-08-26T07:04:27.919Z,75.14
2022-08-26T07:06:58.006Z,75.04
2022-08-26T07:09:29.174Z,74.53
2022-08-26T07:11:58.275Z,74.88
2022-08-26T07:14:27.167Z,74.58
2022-08-26T07:16:56.145Z,74.69
2022-08-26T07:19:30.401Z,74.48
2022-08-26T07:22:03.374Z,74.67
2022-08-26T07:24:32.784Z,74.02
2022-08-26T07:27:02.769Z,73.88
2022-08-26T07:29:31.702Z,73.81
2022-08-26T07:32:00.153Z,73.85
2022-08-26T07:34:28.350Z,74.28
2022-08-26T07:36:57.571Z,74.44
2022-08-26T07:39:28.769Z,73.79
2022-08-26T07:42:01.335Z,73.67
2022-08-26T07:44:29.828Z,74.09
2022-08-26T07:46:58.742Z,73.68
2022-08-26T07:49:28.093Z,74.01
2022-08-26T07:51:57.138Z,73.64
2022-08-26T07:54:27.321Z,73.20
2022-08-26T07:56:56.167Z,72.68
2022-08-26T07:59:24.810Z,72.87
2022-08-26T08:01:52.947Z,72.30
2022-08-26T08:04:26.014Z,72.69
2022-08-26T08:06:55.565Z,72.28
2022-08-26T08:09:25.391Z,72.24
2022-08-26T08:11:54.861Z,72.07
2022-08-26T08:14:23.106Z,71.79
2022-08-26T08:16:54.662Z,71.98
2022-08-26T08:19:23.945Z,71.82
2022-08-26T08:22:13.328Z,71.00
2022-08-26T08:24:50.023Z,70.10
2022-08-26T08:27:24.105Z,69.68
2022-08-26T08:29:54.322Z,69.05
2022-08-26T08:32:24.230Z,68.35
2022-08-26T08:34:52.880Z,67.90
2022-08-26T08:37:21.281Z,68.34
2022-08-26T08:39:50.551Z,67.62
2022-08-26T08:42:46.896Z,68.00
2022-08-26T08:45:22.216Z,68.63
2022-08-26T08:47:54.812Z,68.78
2022-08-26T08:50:31.102Z,69.02
2022-08-26T08:53:16.496Z,69.45
2022-08-26T08:56:00.033Z,69.39
2022-08-26T08:58:44.874Z,69.43
2022-08-26T09:01:26.169Z,69.33
2022-08-26T09:04:10.616Z,69.21
2022-08-26T09:06:41.054Z,69.02
2022-08-26T09:09:22.936Z,69.24
2022-08-26T09:11:51.734Z,68.96
2022-08-26T09:14:21.470Z,68.77
2022-08-26T09:16:57.890Z,68.10
2022-08-26T09:19:35.796Z,68.03
2022-08-26T09:22:09.641Z,67.99
2022-08-26T09:24:48.421Z,67.62
2022-08-26T09:27:41.965Z,67.02
2022-08-26T09:30:26.680Z,65.83
2022-08-26T09:33:10.428Z,65.15
2022-08-26T09:35:43.164Z,64.21
2022-08-26T09:38:26.774Z,64.47
2022-08-26T09:40:59.702Z,63.80
2022-08-26T09:43:29.064Z,63.97
2022-08-26T09:46:16.292Z,64.19
2022-08-26T09:48:44.609Z,64.17
2022-08-26T09:51:32.113Z,64.29
2022-08-26T09:54:05.750Z,65.00
2022-08-26T09:56:39.194Z,65.16
2022-08-26T09:59:11.996Z,64.86
2022-08-26T10:01:43.893Z,65.37
2022-08-26T10:04:21.223Z,65.11
2022-08-26T10:07:00.071Z,65.19
2022-08-26T10:09:30.041Z,65.65
2022-08-26T10:12:05.335Z,65.94
2022-08-26T10:14:39.760Z,66.26
2022-08-26T10:17:17.263Z,65.69
2022-08-26T10:19:56.765Z,65.96
2022-08-26T10:22:33.426Z,66.08
2022-08-26T10:25:05.526Z,65.81
2022-08-26T10:27:51.034Z,65.02
2022-08-26T10:30:24.387Z,66.19
2022-08-26T10:32:58.800Z,66.08
2022-08-26T10:35:27.410Z,66.35
2022-08-26T10:38:03.881Z,66.68
2022-08-26T10:40:50.951Z,66.50
2022-08-26T10:43:23.531Z,67.23
2022-08-26T10:45:58.461Z,66.29
2022-08-26T10:48:37.228Z,66.41
2022-08-26T10:51:06.412Z,66.96
2022-08-26T10:53:51.532Z,66.03
2022-08-26T10:56:39.190Z,65.69
2022-08-26T10:59:14.659Z,66.08
2022-08-26T11:01:52.535Z,65.52
2022-08-26T11:04:48.156Z,65.74
2022-08-26T11:07:41.257Z,65.53
2022-08-26T11:10:47.210Z,64.48
2022-08-26T11:13:17.210Z,64.43
2022-08-26T11:16:12.417Z,63.67
2022-08-26T11:18:48.603Z,63.57
2022-08-26T11:22:00.854Z,63.37
2022-08-26T11:25:11.612Z,62.73
2022-08-26T11:28:05.286Z,62.73
2022-08-26T11:30:44.553Z,62.86
2022-08-26T11:33:57.857Z,63.29
2022-08-26T11:36:59.023Z,63.28
2022-08-26T11:39:54.468Z,63.51
2022-08-26T11:42:34.247Z,63.95
2022-08-26T11:45:19.320Z,63.71
2022-08-26T11:47:49.504Z,63.29
2022-08-26T11:50:23.340Z,62.75
2022-08-26T11:53:01.955Z,62.21
2022-08-26T11:55:31.843Z,61.56
2022-08-26T11:58:02.601Z,61.02
2022-08-26T12:00:50.264Z,60.94
2022-08-26T12:03:23.068Z,60.83
2022-08-26T12:05:53.543Z,61.61
2022-08-26T12:08:29.258Z,61.49
2022-08-26T12:11:06.905Z,61.87
2022-08-26T12:13:35.779Z,61.91
2022-08-26T12:16:07.414Z,61.95
2022-08-26T12:18:39.616Z,61.93
2022-08-26T12:21:22.176Z,61.51
2022-08-26T12:23:55.891Z,61.16
2022-08-26T12:26:28.533Z,60.35
2022-08-26T12:29:00.032Z,59.73
2022-08-26T12:31:32.892Z,58.68
2022-08-26T12:34:04.852Z,58.02
2022-08-26T12:36:37.355Z,56.38
2022-08-26T12:39:12.835Z,54.91
2022-08-26T12:41:46.912Z,55.10
2022-08-26T12:44:36.161Z,55.33
2022-08-26T12:47:20.450Z,55.66
2022-08-26T12:50:04.907Z,57.04
2022-08-26T12:52:36.507Z,58.21
2022-08-26T12:55:19.153Z,59.19
2022-08-26T12:57:48.006Z,60.32
2022-08-26T13:00:35.268Z,61.50
2022-08-26T13:03:04.616Z,62.19
2022-08-26T13:05:35.723Z,62.63
2022-08-26T13:08:17.636Z,63.89
2022-08-26T13:10:48.755Z,63.75
2022-08-26T13:13:16.875Z,63.83
2022-08-26T13:15:45.272Z,63.86
2022-08-26T13:18:13.413Z,64.00
2022-08-26T13:20:44.818Z,64.94
2022-08-26T13:23:14.010Z,65.17
2022-08-26T13:25:42.454Z,66.79
2022-08-26T13:28:12.326Z,69.12
2022-08-26T13:30:41.583Z,69.59
2022-08-26T13:33:12.272Z,70.05
2022-08-26T13:35:42.776Z,71.29
2022-08-26T13:38:33.382Z,71.77
2022-08-26T13:41:04.024Z,72.16
2022-08-26T13:43:34.069Z,70.15
2022-08-26T13:46:02.614Z,66.39
2022-08-26T13:48:31.425Z,63.13
2022-08-26T13:51:00.100Z,60.49
2022-08-26T13:53:29.374Z,58.90
2022-08-26T13:55:58.160Z,59.52
2022-08-26T13:58:26.496Z,60.85
2022-08-26T14:00:57.117Z,60.82
2022-08-26T14:03:25.711Z,60.98
2022-08-26T14:05:54.390Z,61.55
2022-08-26T14:08:23.395Z,62.85
2022-08-26T14:10:51.501Z,63.47
2022-08-26T14:13:19.840Z,64.20
2022-08-26T14:15:48.307Z,63.53
2022-08-26T14:18:21.416Z,63.26
2022-08-26T14:20:59.526Z,63.43
2022-08-26T14:23:31.265Z,63.07
2022-08-26T14:25:59.981Z,61.86
2022-08-26T14:28:28.152Z,61.24
2022-08-26T14:30:59.320Z,61.52
2022-08-26T14:33:33.230Z,61.59
2022-08-26T14:36:15.960Z,62.05
2022-08-26T14:38:44.814Z,62.26
2022-08-26T14:41:14.781Z,62.04
2022-08-26T14:43:49.733Z,62.16
2022-08-26T14:46:21.546Z,62.75
2022-08-26T14:48:51.283Z,62.25
2022-08-26T14:51:23.799Z,62.29
2022-08-26T14:54:10.474Z,62.98
2022-08-26T14:56:45.291Z,63.09
2022-08-26T14:59:14.312Z,63.38
2022-08-26T15:01:42.713Z,63.63
2022-08-26T15:04:12.730Z,63.52
2022-08-26T15:06:41.711Z,63.98
2022-08-26T15:09:09.868Z,64.11
2022-08-26T15:11:38.104Z,64.02
2022-08-26T15:14:06.826Z,63.92
2022-08-26T15:16:35.625Z,63.50
2022-08-26T15:19:05.259Z,63.31
2022-08-26T15:21:36.627Z,63.74
2022-08-26T15:24:06.088Z,63.61
2022-08-26T15:26:35.193Z,64.06
2022-08-26T15:29:05.164Z,64.72
2022-08-26T15:31:35.541Z,65.13
2022-08-26T15:34:08.533Z,65.78
2022-08-26T15:36:40.742Z,66.01
2022-08-26T15:39:10.371Z,66.27
2022-08-26T15:41:38.832Z,66.82
2022-08-26T15:44:08.986Z,67.36
2022-08-26T15:46:38.519Z,67.42
2022-08-26T15:49:07.424Z,67.30
2022-08-26T15:51:45.503Z,67.53
2022-08-26T15:54:16.532Z,67.15
2022-08-26T15:56:45.379Z,67.24
2022-08-26T15:59:16.220Z,67.12
2022-08-26T16:01:44.852Z,66.58
2022-08-26T16:04:13.960Z,66.58
2022-08-26T16:06:44.063Z,66.90
2022-08-26T16:09:12.558Z,66.91
2022-08-26T16:11:40.897Z,66.90
2022-08-26T16:14:09.796Z,67.35
2022-08-26T16:16:40.004Z,67.48
2022-08-26T16:19:08.574Z,67.70
2022-08-26T16:21:37.065Z,67.72
2022-08-26T16:24:07.382Z,67.85
2022-08-26T16:26:38.435Z,67.63
2022-08-26T16:29:10.119Z,67.98
2022-08-26T16:31:38.983Z,68.21
2022-08-26T16:34:08.038Z,68.26
2022-08-26T16:36:36.625Z,68.09
2022-08-26T16:39:08.751Z,68.10
2022-08-26T16:41:37.426Z,68.14
2022-08-26T16:44:07.053Z,68.09
2022-08-26T16:46:36.157Z,68.24
2022-08-26T16:49:04.958Z,68.14
2022-08-26T16:51:38.051Z,68.32
2022-08-26T16:54:09.592Z,68.26
2022-08-26T16:56:38.373Z,68.38
2022-08-26T16:59:10.538Z,68.27
2022-08-26T17:01:38.979Z,68.35
2022-08-26T17:04:07.190Z,68.26
2022-08-26T17:06:35.913Z,68.45
2022-08-26T17:09:08.343Z,68.58
2022-08-26T17:11:36.889Z,68.47
2022-08-26T17:14:05.829Z,68.33
2022-08-26T17:16:34.232Z,68.57
2022-08-26T17:19:02.611Z,68.56
2022-08-26T17:21:30.804Z,68.41
2022-08-26T17:23:59.307Z,68.31
2022-08-26T17:26:29.529Z,68.43
2022-08-26T17:28:57.716Z,68.15
2022-08-26T17:31:26.833Z,68.09
2022-08-26T17:33:55.515Z,68.23
2022-08-26T17:36:28.031Z,68.19
2022-08-26T17:38:57.842Z,67.93
2022-08-26T17:41:28.456Z,67.83
2022-08-26T17:43:57.134Z,67.98
2022-08-26T17:46:27.926Z,68.08
2022-08-26T17:48:56.301Z,68.22
2022-08-26T17:51:25.019Z,67.93
2022-08-26T17:53:53.973Z,67.95
2022-08-26T17:56:25.912Z,67.94
2022-08-26T17:59:04.011Z,67.60
2022-08-26T18:01:32.776Z,67.67
2022-08-26T18:04:01.350Z,67.54
2022-08-26T18:06:31.070Z,67.61
2022-08-26T18:09:00.340Z,67.61
2022-08-26T18:11:28.965Z,67.73
2022-08-26T18:13:59.011Z,67.54
2022-08-26T18:16:27.665Z,67.69
2022-08-26T18:18:56.622Z,67.58
2022-08-26T18:21:27.509Z,67.56
2022-08-26T18:23:56.275Z,67.67
2022-08-26T18:26:28.110Z,67.67
2022-08-26T18:28:58.573Z,67.78
2022-08-26T18:31:27.702Z,67.53
2022-08-26T18:33:56.329Z,67.60
2022-08-26T18:36:27.689Z,67.67
2022-08-26T18:38:56.926Z,67.74
2022-08-26T18:41:27.813Z,67.78
2022-08-26T18:43:58.371Z,67.85
2022-08-26T18:46:29.027Z,68.13
2022-08-26T18:48:58.460Z,68.33
2022-08-26T18:51:30.646Z,68.24
2022-08-26T18:53:59.790Z,68.43
2022-08-26T18:56:28.475Z,68.47
2022-08-26T18:58:58.910Z,68.32
2022-08-26T19:01:28.656Z,68.39
2022-08-26T19:03:58.007Z,68.52
2022-08-26T19:06:28.174Z,68.71
2022-08-26T19:08:58.148Z,68.41
2022-08-26T19:11:31.585Z,68.46
2022-08-26T19:14:03.213Z,68.28
2022-08-26T19:16:32.045Z,68.20
2022-08-26T19:19:01.926Z,68.28
2022-08-26T19:21:31.145Z,68.18
2022-08-26T19:24:02.535Z,68.40
2022-08-26T19:26:32.605Z,68.55
2022-08-26T19:29:02.583Z,68.60
2022-08-26T19:31:31.198Z,68.70
2022-08-26T19:33:59.542Z,68.71
2022-08-26T19:36:29.210Z,68.52
2022-08-26T19:38:58.100Z,68.97
2022-08-26T19:41:37.075Z,68.64
2022-08-26T19:44:12.899Z,69.18
2022-08-26T19:46:41.622Z,68.70
2022-08-26T19:49:09.821Z,68.68
2022-08-26T19:51:38.026Z,69.07
2022-08-26T19:54:06.852Z,69.26
2022-08-26T19:56:35.442Z,69.38
2022-08-26T19:59:03.734Z,69.04
2022-08-26T20:01:33.418Z,69.39
2022-08-26T20:04:01.864Z,69.43
2022-08-26T20:06:30.022Z,69.64
2022-08-26T20:08:58.696Z,69.78
2022-08-26T20:11:27.102Z,69.71
2022-08-26T20:13:55.415Z,69.82
2022-08-26T20:16:23.734Z,70.06
2022-08-26T20:19:10.699Z,70.11
2022-08-26T20:21:41.288Z,70.03
2022-08-26T20:24:14.238Z,70.14
2022-08-26T20:26:45.023Z,70.34
2022-08-26T20:29:16.918Z,70.32
2022-08-26T20:31:45.768Z,70.24
2022-08-26T20:34:18.430Z,70.29
2022-08-26T20:36:48.072Z,70.43
2022-08-26T20:39:18.259Z,70.52
2022-08-26T20:41:46.354Z,70.41
2022-08-26T20:44:16.594Z,70.21
2022-08-26T20:46:45.381Z,70.04
2022-08-26T20:49:18.035Z,69.87
2022-08-26T20:51:46.748Z,70.10
2022-08-26T20:54:15.349Z,70.24
2022-08-26T20:56:43.514Z,70.11
2022-08-26T20:59:11.669Z,70.25
2022-08-26T21:01:42.437Z,70.04
2022-08-26T21:04:17.045Z,69.99
2022-08-26T21:06:52.686Z,70.26
2022-08-26T21:09:22.707Z,70.17
2022-08-26T21:11:51.585Z,69.94
2022-08-26T21:14:22.832Z,69.89
2022-08-26T21:16:54.374Z,69.91
2022-08-26T21:19:24.505Z,69.94
2022-08-26T21:21:52.615Z,70.21
2022-08-26T21:24:20.999Z,69.87
2022-08-26T21:26:49.581Z,70.06
2022-08-26T21:29:18.782Z,69.99
2022-08-26T21:31:47.133Z,70.22
2022-08-26T21:34:16.046Z,70.11
2022-08-26T21:36:45.961Z,70.35
2022-08-26T21:39:14.854Z,70.05
2022-08-26T21:41:44.640Z,70.04
2022-08-26T21:44:14.921Z,70.05
2022-08-26T21:46:45.426Z,70.71
2022-08-26T21:49:17.385Z,70.45
2022-08-26T21:51:49.158Z,70.77
2022-08-26T21:54:18.036Z,70.49
2022-08-26T21:56:47.969Z,70.75
2022-08-26T21:59:21.382Z,70.65
2022-08-26T22:01:51.202Z,70.85
2022-08-26T22:04:19.636Z,70.98
2022-08-26T22:06:51.993Z,71.04
2022-08-26T22:09:23.387Z,71.00
2022-08-26T22:11:53.195Z,71.22
2022-08-26T22:14:25.400Z,71.51
2022-08-26T22:16:56.740Z,71.15
2022-08-26T22:19:25.674Z,71.81
2022-08-26T22:21:56.480Z,71.60
2022-08-26T22:24:27.621Z,72.08
2022-08-26T22:26:56.468Z,72.07
2022-08-26T22:29:25.599Z,72.44
2022-08-26T22:31:54.189Z,72.74
2022-08-26T22:34:23.182Z,72.76
2022-08-26T22:36:51.935Z,73.06
2022-08-26T22:39:24.609Z,73.03
2022-08-26T22:41:53.619Z,73.41
2022-08-26T22:44:24.718Z,73.38
2022-08-26T22:46:55.078Z,73.44
2022-08-26T22:49:23.803Z,73.57
2022-08-26T22:51:52.009Z,73.76
2022-08-26T22:54:21.746Z,73.99
2022-08-26T22:56:49.880Z,73.77
2022-08-26T22:59:18.043Z,73.81
2022-08-26T23:01:47.253Z,74.03
2022-08-26T23:04:16.137Z,73.94
2022-08-26T23:06:47.745Z,73.92
2022-08-26T23:09:18.243Z,74.36
2022-08-26T23:11:49.620Z,74.33
2022-08-26T23:14:19.511Z,74.29
2022-08-26T23:16:48.327Z,74.04
2022-08-26T23:19:19.486Z,73.80
2022-08-26T23:21:48.434Z,73.99
2022-08-26T23:24:17.427Z,73.77
2022-08-26T23:26:47.732Z,74.13
2022-08-26T23:29:16.426Z,73.89
2022-08-26T23:31:44.872Z,73.85
2022-08-26T23:34:31.327Z,73.86
2022-08-26T23:37:00.136Z,74.02
2022-08-26T23:39:29.633Z,73.96
2022-08-26T23:42:01.570Z,73.92
2022-08-26T23:44:30.536Z,73.63
2022-08-26T23:46:59.286Z,73.77
2022-08-26T23:49:27.856Z,73.67
2022-08-26T23:52:13.298Z,73.70
2022-08-26T23:54:41.853Z,73.53
2022-08-26T23:57:11.890Z,73.48
2022-08-26T23:59:40.679Z,73.53
